Time;durP1;ratioP1;P1;durP2;ratioP2;P2;SDS_P1;SDS_P2;PMS_P1;PMS_P2;Temp;Humidity;BMP_temperature;BMP_pressure;BME280_temperature;BME280_humidity;BME280_pressure;Samples;Min_cycle;Max_cycle;Signal;HPM_P1;HPM_P2
2022/05/03 00:01:17;;;;;;;;;;;18.50;99.90;;;;;;5096130;28;19914;-86
2022/05/03 00:03:44;;;;;;;;;;;18.50;99.90;;;;;;5095628;28;19908;-87
2022/05/03 00:06:30;;;;;;;;;;;18.40;99.90;;;;;;5096196;28;20338;-84
2022/05/03 00:09:07;;;;;;;;;;;18.50;99.90;;;;;;5096048;28;19961;-82
2022/05/03 00:11:40;;;;;;;;;;;18.70;99.90;;;;;;5095643;28;19908;-86
2022/05/03 00:14:17;;;;;;;;;;;18.70;99.90;;;;;;5095548;28;19916;-80
2022/05/03 00:16:45;;;;;;;;;;;18.60;99.90;;;;;;5095606;28;20385;-82
2022/05/03 00:19:11;;;;;;;;;;;18.70;99.90;;;;;;5095546;28;19908;-81
2022/05/03 00:21:38;;;;;;;;;;;18.70;99.90;;;;;;5095452;28;19994;-79
2022/05/03 00:24:06;;;;;;;;;;;18.60;99.90;;;;;;5095520;28;20377;-79
2022/05/03 00:26:33;;;;;;;;;;;18.70;99.90;;;;;;5095526;28;19908;-79
2022/05/03 00:29:00;;;;;;;;;;;18.70;99.90;;;;;;5095620;28;19916;-84
2022/05/03 00:31:27;;;;;;;;;;;18.70;99.90;;;;;;5095387;28;19915;-82
2022/05/03 00:33:55;;;;;;;;;;;18.90;99.90;;;;;;5093339;28;20280;-83
2022/05/03 00:36:22;;;;;;;;;;;19.10;99.90;;;;;;5095384;28;20357;-81
2022/05/03 00:38:48;;;;;;;;;;;19.30;99.90;;;;;;5095157;28;19931;-81
2022/05/03 00:41:18;;;;;;;;;;;19.40;99.90;;;;;;5095376;28;19982;-83
2022/05/03 00:43:49;;;;;;;;;;;19.50;99.90;;;;;;5094885;28;20055;-84
2022/05/03 00:46:21;;;;;;;;;;;19.40;99.90;;;;;;5095403;28;19962;-79
2022/05/03 00:49:05;;;;;;;;;;;19.50;99.90;;;;;;5095089;28;19908;-87
2022/05/03 00:51:44;;;;;;;;;;;19.40;99.90;;;;;;5094882;28;19920;-85
2022/05/03 00:54:30;;;;;;;;;;;19.40;99.90;;;;;;5095049;28;19916;-84
2022/05/03 00:57:15;;;;;;;;;;;19.60;99.90;;;;;;5095014;28;19912;-83
2022/05/03 00:59:54;;;;;;;;;;;19.70;99.90;;;;;;5094603;28;20275;-80
2022/05/03 01:02:27;;;;;;;;;;;19.80;99.90;;;;;;5094881;28;19994;-81
2022/05/03 01:04:56;;;;;;;;;;;20.00;99.90;;;;;;5094802;28;20274;-79
2022/05/03 01:07:36;;;;;;;;;;;20.60;99.90;;;;;;5094654;28;19909;-79
2022/05/03 01:10:05;;;;;;;;;;;21.40;99.90;;;;;;5094621;28;20033;-78
2022/05/03 01:12:44;;;;;;;;;;;22.20;99.90;;;;;;5094767;28;19966;-79
2022/05/03 01:15:16;;;;;;;;;;;22.30;99.90;;;;;;5094358;28;20346;-79
2022/05/03 01:17:45;;;;;;;;;;;22.30;99.90;;;;;;5094295;28;20215;-80
2022/05/03 01:20:15;;;;;;;;;;;22.40;99.90;;;;;;5094525;28;19961;-79
2022/05/03 01:23:00;;;;;;;;;;;22.50;99.90;;;;;;5094347;28;20003;-79
2022/05/03 01:25:36;;;;;;;;;;;22.30;99.90;;;;;;5094390;28;19909;-80
2022/05/03 01:28:21;;;;;;;;;;;21.80;99.90;;;;;;5094231;28;19908;-80
2022/05/03 01:30:49;;;;;;;;;;;21.40;99.90;;;;;;5094223;28;20390;-79
2022/05/03 01:33:31;;;;;;;;;;;21.00;99.90;;;;;;5094007;28;19916;-80
2022/05/03 01:35:59;;;;;;;;;;;20.90;99.90;;;;;;5094115;28;19916;-79
2022/05/03 01:38:48;;;;;;;;;;;21.20;99.90;;;;;;5094014;28;19912;-79
2022/05/03 01:41:24;;;;;;;;;;;21.30;99.90;;;;;;5090900;28;20045;-82
2022/05/03 01:44:04;;;;;;;;;;;21.40;99.90;;;;;;5093668;28;19908;-80
2022/05/03 01:46:31;;;;;;;;;;;21.40;99.90;;;;;;5093058;28;19908;-80
2022/05/03 01:52:06;;;;;;;;;;;21.30;99.90;;;;;;5093810;28;19923;-79
2022/05/03 01:54:52;;;;;;;;;;;21.30;99.90;;;;;;5093889;28;20534;-79
2022/05/03 01:57:21;;;;;;;;;;;21.30;99.90;;;;;;5093676;28;20354;-78
2022/05/03 01:59:48;;;;;;;;;;;21.30;99.90;;;;;;5093553;28;19943;-79
2022/05/03 02:02:21;;;;;;;;;;;21.40;99.90;;;;;;5092465;28;20313;-79
2022/05/03 02:05:05;;;;;;;;;;;21.30;99.90;;;;;;5093818;28;19914;-79
2022/05/03 02:07:47;;;;;;;;;;;21.40;99.90;;;;;;5093372;28;19908;-81
2022/05/03 02:10:18;;;;;;;;;;;21.30;99.90;;;;;;5093691;28;19954;-81
2022/05/03 02:12:46;;;;;;;;;;;21.20;99.90;;;;;;5093602;28;19943;-81
2022/05/03 02:15:13;;;;;;;;;;;21.10;99.90;;;;;;5093458;28;19915;-83
2022/05/03 02:18:15;;;;;;;;;;;21.10;99.90;;;;;;5093397;28;19915;-79
2022/05/03 02:20:57;;;;;;;;;;;21.10;99.90;;;;;;5070961;28;20359;-78
2022/05/03 02:23:26;;;;;;;;;;;21.30;99.90;;;;;;5091285;28;19915;-78
2022/05/03 02:25:53;;;;;;;;;;;21.30;99.90;;;;;;5093333;28;19908;-78
2022/05/03 02:28:23;;;;;;;;;;;21.50;99.90;;;;;;5093276;28;20243;-79
2022/05/03 02:30:51;;;;;;;;;;;21.50;99.90;;;;;;5093616;28;20014;-79
2022/05/03 02:33:21;;;;;;;;;;;21.40;99.90;;;;;;5093262;28;19916;-79
2022/05/03 02:35:49;;;;;;;;;;;21.40;99.90;;;;;;5093360;28;20007;-78
2022/05/03 02:38:20;;;;;;;;;;;21.30;99.90;;;;;;5091203;28;19935;-79
2022/05/03 02:40:50;;;;;;;;;;;21.30;99.90;;;;;;5082227;28;19933;-80
2022/05/03 02:43:17;;;;;;;;;;;21.40;99.90;;;;;;5092473;28;19960;-79
2022/05/03 02:45:50;;;;;;;;;;;21.40;99.90;;;;;;5092374;28;20263;-81
2022/05/03 02:48:23;;;;;;;;;;;21.40;99.90;;;;;;5092738;28;19915;-80
2022/05/03 02:50:53;;;;;;;;;;;21.20;99.90;;;;;;5125345;28;20282;-79
2022/05/03 02:53:38;;;;;;;;;;;21.40;99.90;;;;;;5093030;28;19923;-80
2022/05/03 02:56:10;;;;;;;;;;;21.40;99.90;;;;;;5093277;28;19913;-83
2022/05/03 02:58:43;;;;;;;;;;;21.40;99.90;;;;;;5096229;28;19977;-82
2022/05/03 03:04:00;;;;;;;;;;;21.30;99.90;;;;;;5097004;28;19925;-82
2022/05/03 03:06:30;;;;;;;;;;;21.40;99.90;;;;;;5097025;28;19908;-83
2022/05/03 03:08:58;;;;;;;;;;;21.40;99.90;;;;;;5096949;28;19919;-80
2022/05/03 03:11:33;;;;;;;;;;;21.30;99.90;;;;;;5096913;28;20064;-78
2022/05/03 03:14:02;;;;;;;;;;;21.30;99.90;;;;;;5096566;28;19916;-79
2022/05/03 03:16:33;;;;;;;;;;;21.30;99.90;;;;;;5096878;28;19908;-79
2022/05/03 03:19:04;;;;;;;;;;;21.30;99.90;;;;;;5096787;28;20267;-80
2022/05/03 03:21:34;;;;;;;;;;;21.30;99.90;;;;;;5096447;28;19939;-80
2022/05/03 03:24:01;;;;;;;;;;;21.30;99.90;;;;;;5096570;28;20340;-80
2022/05/03 03:26:31;;;;;;;;;;;21.30;99.90;;;;;;5096591;28;19908;-85
2022/05/03 03:28:59;;;;;;;;;;;21.30;99.90;;;;;;5096295;28;19908;-81
2022/05/03 03:31:26;;;;;;;;;;;21.30;99.90;;;;;;5096553;28;19912;-81
2022/05/03 03:33:56;;;;;;;;;;;21.30;99.90;;;;;;5096300;28;19920;-82
2022/05/03 03:36:23;;;;;;;;;;;21.20;99.90;;;;;;5096487;28;19909;-81
2022/05/03 03:38:50;;;;;;;;;;;21.10;99.90;;;;;;5096430;28;20274;-82
2022/05/03 03:41:17;;;;;;;;;;;21.00;99.90;;;;;;5096356;28;19908;-80
2022/05/03 03:43:43;;;;;;;;;;;21.10;99.90;;;;;;5095859;28;19908;-79
2022/05/03 03:46:11;;;;;;;;;;;21.10;99.90;;;;;;5096197;28;20423;-82
2022/05/03 03:48:37;;;;;;;;;;;21.20;99.90;;;;;;5096211;28;19991;-81
2022/05/03 03:51:05;;;;;;;;;;;21.20;99.90;;;;;;5095933;28;19928;-79
2022/05/03 03:53:33;;;;;;;;;;;21.30;99.90;;;;;;5095785;28;20281;-81
2022/05/03 03:56:00;;;;;;;;;;;21.30;99.90;;;;;;5095816;28;20358;-78
2022/05/03 03:58:27;;;;;;;;;;;21.20;99.90;;;;;;5095955;28;19912;-77
2022/05/03 04:00:54;;;;;;;;;;;21.10;99.90;;;;;;5095913;28;19916;-81
2022/05/03 04:03:21;;;;;;;;;;;21.20;99.90;;;;;;5095925;28;19908;-81
2022/05/03 04:05:47;;;;;;;;;;;21.20;99.90;;;;;;5095894;28;19915;-80
2022/05/03 04:08:14;;;;;;;;;;;21.00;99.90;;;;;;5095567;28;19934;-82
2022/05/03 04:10:43;;;;;;;;;;;20.90;99.90;;;;;;5094988;28;19961;-79
2022/05/03 04:13:13;;;;;;;;;;;20.80;99.90;;;;;;5095423;28;20381;-79
2022/05/03 04:15:40;;;;;;;;;;;20.80;99.90;;;;;;5095492;28;19916;-78
2022/05/03 04:18:07;;;;;;;;;;;20.70;99.90;;;;;;5095598;28;19915;-79
2022/05/03 04:20:34;;;;;;;;;;;20.70;99.90;;;;;;5095589;28;19999;-77
2022/05/03 04:23:01;;;;;;;;;;;20.70;99.90;;;;;;5095596;28;20358;-77
2022/05/03 04:25:28;;;;;;;;;;;20.90;99.90;;;;;;5095650;28;20294;-79
2022/05/03 04:27:55;;;;;;;;;;;20.90;99.90;;;;;;5095081;28;19908;-81
2022/05/03 04:30:21;;;;;;;;;;;20.80;99.90;;;;;;5095373;28;19962;-83
2022/05/03 04:32:48;;;;;;;;;;;20.90;99.90;;;;;;5095136;28;20342;-80
2022/05/03 04:35:15;;;;;;;;;;;20.90;99.90;;;;;;5095385;28;19995;-79
2022/05/03 04:37:41;;;;;;;;;;;20.90;99.90;;;;;;5094978;28;19939;-79
2022/05/03 04:40:08;;;;;;;;;;;20.90;99.90;;;;;;5095276;28;19958;-79
2022/05/03 04:42:35;;;;;;;;;;;20.90;99.90;;;;;;5095805;27;19950;-78
2022/05/03 04:45:02;;;;;;;;;;;21.00;99.90;;;;;;5095302;28;19908;-78
2022/05/03 04:47:28;;;;;;;;;;;21.00;99.90;;;;;;5095056;28;19994;-78
2022/05/03 04:49:55;;;;;;;;;;;21.00;99.90;;;;;;5094939;28;20387;-78
2022/05/03 04:52:22;;;;;;;;;;;21.00;99.90;;;;;;5095007;28;19915;-80
2022/05/03 04:54:49;;;;;;;;;;;21.00;99.90;;;;;;5092375;28;20003;-80
2022/05/03 04:57:16;;;;;;;;;;;20.90;99.90;;;;;;5083614;28;19909;-79
2022/05/03 04:59:42;;;;;;;;;;;20.80;99.90;;;;;;5073765;28;19991;-77
2022/05/03 05:02:09;;;;;;;;;;;20.90;99.90;;;;;;5073831;28;20110;-81
2022/05/03 05:04:36;;;;;;;;;;;20.80;99.90;;;;;;5092701;28;19912;-79
2022/05/03 05:07:03;;;;;;;;;;;20.80;99.90;;;;;;5115059;28;19907;-80
2022/05/03 05:09:30;;;;;;;;;;;20.80;99.90;;;;;;5115088;28;19908;-82
2022/05/03 05:11:56;;;;;;;;;;;20.90;99.90;;;;;;5114793;28;20365;-82
2022/05/03 05:14:23;;;;;;;;;;;20.80;99.90;;;;;;5114841;28;19977;-80
2022/05/03 05:16:50;;;;;;;;;;;20.70;99.90;;;;;;5114852;28;19933;-79
2022/05/03 05:19:17;;;;;;;;;;;20.70;99.90;;;;;;5114962;28;19915;-79
2022/05/03 05:21:44;;;;;;;;;;;20.60;99.90;;;;;;5114420;28;19914;-78
2022/05/03 05:24:11;;;;;;;;;;;20.60;99.90;;;;;;5114586;28;20358;-77
2022/05/03 05:26:39;;;;;;;;;;;20.60;99.90;;;;;;5114651;28;20247;-79
2022/05/03 05:29:05;;;;;;;;;;;20.50;99.90;;;;;;5114483;28;19919;-80
2022/05/03 05:31:32;;;;;;;;;;;20.50;99.90;;;;;;5114378;28;19914;-79
2022/05/03 05:33:58;;;;;;;;;;;20.60;99.90;;;;;;5114571;28;20437;-79
2022/05/03 05:36:25;;;;;;;;;;;20.60;99.90;;;;;;5114470;28;19955;-84
2022/05/03 05:38:52;;;;;;;;;;;20.60;99.90;;;;;;5114363;28;19908;-83
2022/05/03 05:41:19;;;;;;;;;;;20.40;99.90;;;;;;5114049;28;19912;-83
2022/05/03 05:43:47;;;;;;;;;;;20.40;99.90;;;;;;5114200;28;19911;-83
2022/05/03 05:46:14;;;;;;;;;;;20.40;99.90;;;;;;5114579;28;19908;-85
2022/05/03 05:48:41;;;;;;;;;;;20.40;99.90;;;;;;5114466;28;19908;-81
2022/05/03 05:51:07;;;;;;;;;;;20.40;99.90;;;;;;5114063;28;19955;-82
2022/05/03 05:53:34;;;;;;;;;;;20.40;99.90;;;;;;5114098;28;19920;-81
2022/05/03 05:56:02;;;;;;;;;;;20.40;99.90;;;;;;5114108;28;19915;-81
2022/05/03 05:58:28;;;;;;;;;;;20.40;99.90;;;;;;5113941;28;19907;-83
2022/05/03 06:00:56;;;;;;;;;;;20.40;99.90;;;;;;5114147;28;19912;-82
2022/05/03 06:03:23;;;;;;;;;;;20.30;99.90;;;;;;5114160;28;19908;-84
2022/05/03 06:05:51;;;;;;;;;;;20.30;99.90;;;;;;5113798;28;20623;-83
2022/05/03 06:08:18;;;;;;;;;;;20.30;99.90;;;;;;5113948;28;19915;-84
2022/05/03 06:10:45;;;;;;;;;;;20.30;99.90;;;;;;5114066;28;19908;-84
2022/05/03 06:13:13;;;;;;;;;;;20.30;99.90;;;;;;5113749;28;19963;-83
2022/05/03 06:15:40;;;;;;;;;;;20.20;99.90;;;;;;5113747;28;19907;-81
2022/05/03 06:18:08;;;;;;;;;;;20.10;99.90;;;;;;5114142;28;20006;-82
2022/05/03 06:20:34;;;;;;;;;;;20.20;99.90;;;;;;5113981;28;20362;-82
2022/05/03 06:23:01;;;;;;;;;;;20.10;99.90;;;;;;5113806;28;20317;-81
2022/05/03 06:25:28;;;;;;;;;;;20.10;99.90;;;;;;5113935;28;19908;-81
2022/05/03 06:27:54;;;;;;;;;;;20.10;99.90;;;;;;5113493;28;19908;-81
2022/05/03 06:30:21;;;;;;;;;;;20.00;99.90;;;;;;5113858;28;19915;-80
2022/05/03 06:32:48;;;;;;;;;;;20.00;99.90;;;;;;5115529;28;19951;-81
2022/05/03 06:35:14;;;;;;;;;;;20.00;99.90;;;;;;5118086;28;19915;-84
2022/05/03 06:37:42;;;;;;;;;;;20.00;99.90;;;;;;5117849;28;19915;-82
2022/05/03 06:40:09;;;;;;;;;;;19.90;99.90;;;;;;5117979;28;19911;-83
2022/05/03 06:42:39;;;;;;;;;;;19.80;99.90;;;;;;5117820;28;19912;-83
2022/05/03 06:45:07;;;;;;;;;;;19.80;99.90;;;;;;5117784;28;20362;-82
2022/05/03 06:47:33;;;;;;;;;;;19.80;99.90;;;;;;5117514;28;20370;-82
2022/05/03 06:50:00;;;;;;;;;;;19.80;99.90;;;;;;5117795;28;19920;-84
2022/05/03 06:52:27;;;;;;;;;;;19.70;99.90;;;;;;5114996;28;19937;-80
2022/05/03 06:54:54;;;;;;;;;;;19.70;99.90;;;;;;5115784;28;19911;-84
2022/05/03 06:57:20;;;;;;;;;;;19.70;99.90;;;;;;5115569;28;19912;-83
2022/05/03 06:59:47;;;;;;;;;;;19.60;99.90;;;;;;5115374;28;19934;-83
2022/05/03 07:02:14;;;;;;;;;;;19.60;99.90;;;;;;5115414;28;19912;-82
2022/05/03 07:04:43;;;;;;;;;;;19.60;99.90;;;;;;5115047;28;19908;-83
2022/05/03 07:07:11;;;;;;;;;;;19.50;99.90;;;;;;5115352;28;20327;-83
2022/05/03 07:09:37;;;;;;;;;;;19.50;99.90;;;;;;5114965;28;20290;-82
2022/05/03 07:12:04;;;;;;;;;;;19.40;99.90;;;;;;5115852;28;19998;-82
2022/05/03 07:14:31;;;;;;;;;;;19.50;99.90;;;;;;5115170;28;19969;-84
2022/05/03 07:16:57;;;;;;;;;;;19.40;99.90;;;;;;5114648;28;19962;-84
2022/05/03 07:22:51;;;;;;;;;;;19.30;99.90;;;;;;5115016;28;20380;-83
2022/05/03 07:24:58;;;;;;;;;;;19.30;99.90;;;;;;5111583;28;19950;-83
2022/05/03 07:27:25;;;;;;;;;;;19.20;99.90;;;;;;5114860;28;20362;-82
2022/05/03 07:29:52;;;;;;;;;;;19.20;99.90;;;;;;5114614;28;19912;-82
2022/05/03 07:32:19;;;;;;;;;;;19.20;99.90;;;;;;5114646;28;19912;-84
2022/05/03 07:34:46;;;;;;;;;;;19.20;99.90;;;;;;5115035;28;19972;-82
2022/05/03 07:37:13;;;;;;;;;;;19.20;99.90;;;;;;5114718;28;19951;-83
2022/05/03 07:39:40;;;;;;;;;;;19.20;99.90;;;;;;5114441;28;19911;-84
2022/05/03 07:42:07;;;;;;;;;;;19.20;99.90;;;;;;5114584;28;19933;-82
2022/05/03 07:44:33;;;;;;;;;;;19.20;99.90;;;;;;5114438;28;19918;-85
2022/05/03 07:47:00;;;;;;;;;;;19.20;99.90;;;;;;5114680;28;19915;-82
2022/05/03 07:49:27;;;;;;;;;;;19.10;99.90;;;;;;5114519;28;19927;-82
2022/05/03 07:51:53;;;;;;;;;;;19.10;99.90;;;;;;5114389;28;19930;-82
2022/05/03 07:54:20;;;;;;;;;;;19.00;99.90;;;;;;5114404;28;19974;-81
2022/05/03 07:56:47;;;;;;;;;;;19.10;99.90;;;;;;5113934;28;19907;-79
2022/05/03 07:59:14;;;;;;;;;;;19.10;99.90;;;;;;5114298;28;19930;-78
2022/05/03 08:01:41;;;;;;;;;;;19.00;99.90;;;;;;5114037;28;19911;-83
2022/05/03 08:04:08;;;;;;;;;;;19.00;99.90;;;;;;5114382;28;19964;-81
2022/05/03 08:06:35;;;;;;;;;;;19.00;99.90;;;;;;5114169;28;20370;-82
2022/05/03 08:09:03;;;;;;;;;;;19.00;99.90;;;;;;5113982;28;19908;-80
2022/05/03 08:11:30;;;;;;;;;;;19.00;99.90;;;;;;5113994;28;19939;-80
2022/05/03 08:13:57;;;;;;;;;;;18.90;99.90;;;;;;5113950;28;20548;-80
2022/05/03 08:16:24;;;;;;;;;;;18.90;99.90;;;;;;5113978;28;19915;-81
2022/05/03 08:18:51;;;;;;;;;;;18.90;99.90;;;;;;5114139;28;19915;-79
2022/05/03 08:21:18;;;;;;;;;;;18.90;99.90;;;;;;5114041;28;19908;-80
2022/05/03 08:23:44;;;;;;;;;;;18.90;99.90;;;;;;5113368;28;19970;-82
2022/05/03 08:26:11;;;;;;;;;;;18.80;99.90;;;;;;5113696;28;20484;-82
2022/05/03 08:28:38;;;;;;;;;;;18.80;99.90;;;;;;5112656;28;19912;-79
2022/05/03 08:31:05;;;;;;;;;;;18.80;99.90;;;;;;5113947;28;19912;-81
2022/05/03 08:33:31;;;;;;;;;;;18.80;99.90;;;;;;5113333;28;19920;-81
2022/05/03 08:35:58;;;;;;;;;;;18.70;99.90;;;;;;5113315;28;20384;-80
2022/05/03 08:43:54;;;;;;;;;;;18.70;99.90;;;;;;5113699;28;19930;-79
2022/05/03 08:46:21;;;;;;;;;;;18.70;99.90;;;;;;5113521;28;20015;-82
2022/05/03 08:48:52;;;;;;;;;;;18.70;99.90;;;;;;5113119;28;19953;-82
2022/05/03 08:51:20;;;;;;;;;;;18.70;99.90;;;;;;5113481;28;19920;-80
2022/05/03 08:53:47;;;;;;;;;;;18.60;99.90;;;;;;5113361;28;19974;-79
2022/05/03 08:56:17;;;;;;;;;;;18.60;99.90;;;;;;5112944;28;19912;-79
2022/05/03 08:58:44;;;;;;;;;;;18.60;99.90;;;;;;5113273;28;19919;-79
2022/05/03 09:01:11;;;;;;;;;;;18.60;99.90;;;;;;5113230;28;20327;-80
2022/05/03 09:03:39;;;;;;;;;;;18.50;99.90;;;;;;5112524;28;19912;-80
2022/05/03 09:06:06;;;;;;;;;;;18.50;99.90;;;;;;5114254;28;19912;-79
2022/05/03 09:08:33;;;;;;;;;;;18.50;99.90;;;;;;5115159;28;19930;-81
2022/05/03 09:11:11;;;;;;;;;;;18.50;99.90;;;;;;5114783;28;20370;-80
2022/05/03 09:13:38;;;;;;;;;;;18.50;99.90;;;;;;5101724;28;20019;-80
2022/05/03 09:16:12;;;;;;;;;;;18.50;99.90;;;;;;5094555;28;20363;-82
2022/05/03 09:18:39;;;;;;;;;;;18.50;99.90;;;;;;5094613;28;19961;-80
2022/05/03 09:24:05;;;;;;;;;;;18.40;99.90;;;;;;5094858;28;19995;-78
2022/05/03 09:26:32;;;;;;;;;;;18.40;99.90;;;;;;5094410;28;19954;-80
2022/05/03 09:29:03;;;;;;;;;;;18.40;99.90;;;;;;5094405;28;20429;-79
2022/05/03 09:31:32;;;;;;;;;;;18.40;99.90;;;;;;5094105;28;19908;-80
2022/05/03 09:33:59;;;;;;;;;;;18.40;99.90;;;;;;5094148;28;19916;-79
2022/05/03 09:36:26;;;;;;;;;;;18.30;99.90;;;;;;5094426;28;19915;-78
2022/05/03 09:38:56;;;;;;;;;;;18.30;99.90;;;;;;5094077;28;19994;-80
2022/05/03 09:41:23;;;;;;;;;;;18.30;99.90;;;;;;5094025;28;20021;-79
2022/05/03 09:44:03;;;;;;;;;;;18.30;99.90;;;;;;5093743;28;20374;-82
2022/05/03 09:46:30;;;;;;;;;;;18.30;99.90;;;;;;5093909;28;19940;-82
2022/05/03 09:48:56;;;;;;;;;;;18.30;99.90;;;;;;5093941;28;19908;-82
2022/05/03 09:51:24;;;;;;;;;;;18.20;99.90;;;;;;5093732;28;20021;-81
2022/05/03 09:54:02;;;;;;;;;;;18.20;99.90;;;;;;5093712;28;19923;-81
2022/05/03 09:56:32;;;;;;;;;;;18.20;99.90;;;;;;5093895;28;19908;-83
2022/05/03 09:59:08;;;;;;;;;;;18.20;99.90;;;;;;5093789;28;19908;-81
2022/05/03 10:01:35;;;;;;;;;;;18.20;99.90;;;;;;5093839;28;20366;-82
2022/05/03 10:04:02;;;;;;;;;;;18.20;99.90;;;;;;5093686;28;19951;-79
2022/05/03 10:06:29;;;;;;;;;;;18.20;99.90;;;;;;5093336;28;19909;-82
2022/05/03 10:08:56;;;;;;;;;;;18.20;99.90;;;;;;5093486;28;19912;-82
2022/05/03 10:11:26;;;;;;;;;;;18.20;99.90;;;;;;5093442;28;20349;-81
2022/05/03 10:13:53;;;;;;;;;;;18.20;99.90;;;;;;5093473;28;20358;-80
2022/05/03 10:22:04;;;;;;;;;;;18.10;99.90;;;;;;5094040;28;19915;-80
2022/05/03 10:24:31;;;;;;;;;;;18.10;99.90;;;;;;5093666;28;19908;-79
2022/05/03 10:27:02;;;;;;;;;;;18.10;99.90;;;;;;5093499;28;19950;-81
2022/05/03 10:29:33;;;;;;;;;;;18.10;99.90;;;;;;5091000;28;19919;-82
2022/05/03 10:32:14;;;;;;;;;;;18.10;99.90;;;;;;5086304;28;19912;-82
2022/05/03 10:34:42;;;;;;;;;;;18.10;99.90;;;;;;5071283;28;20028;-80
2022/05/03 10:37:13;;;;;;;;;;;18.10;99.90;;;;;;5071182;28;20007;-82
2022/05/03 10:39:54;;;;;;;;;;;18.10;99.90;;;;;;5070699;28;20325;-84
2022/05/03 10:42:39;;;;;;;;;;;18.00;99.90;;;;;;5071465;28;20351;-81
2022/05/03 10:45:06;;;;;;;;;;;18.10;99.90;;;;;;5071209;28;20007;-79
2022/05/03 10:47:43;;;;;;;;;;;18.10;99.90;;;;;;5071245;28;19952;-82
2022/05/03 10:50:10;;;;;;;;;;;18.00;99.90;;;;;;5071223;28;20386;-80
2022/05/03 10:52:37;;;;;;;;;;;18.10;99.90;;;;;;5071103;28;19908;-82
2022/05/03 10:55:05;;;;;;;;;;;18.00;99.90;;;;;;5070504;28;20390;-80
2022/05/03 10:57:31;;;;;;;;;;;18.00;99.90;;;;;;5071216;28;19909;-81
2022/05/03 10:59:58;;;;;;;;;;;18.00;99.90;;;;;;5071574;28;19908;-79
2022/05/03 11:02:25;;;;;;;;;;;18.00;99.90;;;;;;5071199;28;19910;-81
2022/05/03 11:05:09;;;;;;;;;;;18.00;99.90;;;;;;5071253;28;19909;-82
2022/05/03 11:07:36;;;;;;;;;;;17.90;99.90;;;;;;5070961;28;20337;-81
2022/05/03 11:10:21;;;;;;;;;;;18.00;99.90;;;;;;5070784;28;19916;-80
2022/05/03 11:12:50;;;;;;;;;;;18.00;99.90;;;;;;5070698;28;19967;-80
2022/05/03 11:15:17;;;;;;;;;;;18.00;99.90;;;;;;5070931;28;19959;-79
2022/05/03 11:17:44;;;;;;;;;;;17.90;99.90;;;;;;5070664;28;20007;-79
2022/05/03 11:20:10;;;;;;;;;;;17.90;99.90;;;;;;5074365;28;19909;-80
2022/05/03 11:22:37;;;;;;;;;;;17.90;99.90;;;;;;5074291;28;19908;-80
2022/05/03 11:25:06;;;;;;;;;;;17.90;99.90;;;;;;5073458;28;19908;-80
2022/05/03 11:27:33;;;;;;;;;;;17.90;99.90;;;;;;5074138;28;19999;-80
2022/05/03 11:30:01;;;;;;;;;;;17.90;99.90;;;;;;5074290;28;19912;-83
2022/05/03 11:32:48;;;;;;;;;;;17.90;99.90;;;;;;5106425;28;19916;-80
2022/05/03 11:35:16;;;;;;;;;;;17.80;99.90;;;;;;5074019;28;19932;-79
2022/05/03 11:37:47;;;;;;;;;;;17.80;99.90;;;;;;5073623;28;19912;-82
2022/05/03 11:40:15;;;;;;;;;;;17.80;99.90;;;;;;5073463;28;20355;-78
2022/05/03 11:42:44;;;;;;;;;;;17.80;99.90;;;;;;5074289;28;19943;-81
2022/05/03 11:45:12;;;;;;;;;;;17.90;99.90;;;;;;5074042;28;19974;-79
2022/05/03 11:47:40;;;;;;;;;;;17.90;99.90;;;;;;5073762;28;19958;-78
2022/05/03 11:50:07;;;;;;;;;;;17.90;99.90;;;;;;5074229;28;19953;-80
2022/05/03 11:58:04;;;;;;;;;;;18.00;99.90;;;;;;5076286;28;20050;-79
2022/05/03 12:00:31;;;;;;;;;;;17.90;99.90;;;;;;5075868;28;19943;-83
2022/05/03 12:03:00;;;;;;;;;;;17.90;99.90;;;;;;5075771;28;19916;-80
2022/05/03 12:05:27;;;;;;;;;;;17.90;99.90;;;;;;5075745;28;19955;-80
2022/05/03 12:07:54;;;;;;;;;;;17.90;99.90;;;;;;5075174;28;19908;-79
2022/05/03 12:10:24;;;;;;;;;;;17.90;99.90;;;;;;5075554;28;19961;-83
2022/05/03 12:13:07;;;;;;;;;;;17.90;99.90;;;;;;5075547;28;19923;-82
2022/05/03 12:15:48;;;;;;;;;;;17.90;99.90;;;;;;5075245;28;19908;-81
2022/05/03 12:18:19;;;;;;;;;;;17.80;99.90;;;;;;5075559;28;19912;-82
2022/05/03 12:20:57;;;;;;;;;;;17.60;99.90;;;;;;5075373;28;19918;-79
2022/05/03 12:23:24;;;;;;;;;;;17.60;99.90;;;;;;5074863;28;20400;-80
2022/05/03 12:25:52;;;;;;;;;;;17.60;99.90;;;;;;5075090;28;19934;-79
2022/05/03 12:28:19;;;;;;;;;;;17.50;99.90;;;;;;5075320;28;20271;-80
2022/05/03 12:30:54;;;;;;;;;;;17.50;99.90;;;;;;5074364;28;19913;-79
2022/05/03 12:33:21;;;;;;;;;;;17.50;99.90;;;;;;5075125;28;19916;-80
2022/05/03 12:35:48;;;;;;;;;;;17.50;99.90;;;;;;5074952;28;20267;-78
2022/05/03 12:38:16;;;;;;;;;;;17.50;99.90;;;;;;5074456;28;20413;-78
2022/05/03 12:40:45;;;;;;;;;;;17.50;99.90;;;;;;5073630;28;20275;-78
2022/05/03 12:43:13;;;;;;;;;;;17.50;99.90;;;;;;5075054;28;19908;-79
2022/05/03 12:45:40;;;;;;;;;;;17.50;99.90;;;;;;5074799;28;19908;-79
2022/05/03 12:48:07;;;;;;;;;;;17.50;99.90;;;;;;5074919;28;20399;-80
2022/05/03 12:50:34;;;;;;;;;;;17.50;99.90;;;;;;5074632;28;20408;-79
2022/05/03 12:53:00;;;;;;;;;;;17.50;99.90;;;;;;5074083;28;20387;-80
2022/05/03 12:55:30;;;;;;;;;;;17.50;99.90;;;;;;5074655;28;19915;-79
2022/05/03 13:00:43;;;;;;;;;;;17.50;99.90;;;;;;5074831;28;19915;-78
2022/05/03 13:03:10;;;;;;;;;;;17.50;99.90;;;;;;5074811;28;19954;-77
2022/05/03 13:05:37;;;;;;;;;;;17.50;99.90;;;;;;5106694;28;19909;-78
2022/05/03 13:08:04;;;;;;;;;;;17.50;99.90;;;;;;5073934;28;19955;-79
2022/05/03 13:10:33;;;;;;;;;;;17.50;99.90;;;;;;5074400;28;20351;-79
2022/05/03 13:13:03;;;;;;;;;;;17.50;99.90;;;;;;5074339;28;19927;-81
2022/05/03 13:15:30;;;;;;;;;;;17.40;99.90;;;;;;5074368;28;20350;-78
2022/05/03 13:17:57;;;;;;;;;;;17.50;99.90;;;;;;5074594;28;19915;-80
2022/05/03 13:20:24;;;;;;;;;;;17.50;99.90;;;;;;5073895;28;19916;-78
2022/05/03 13:22:51;;;;;;;;;;;17.50;99.90;;;;;;5074167;28;19916;-80
2022/05/03 13:25:18;;;;;;;;;;;17.50;99.90;;;;;;5074103;28;20019;-82
2022/05/03 13:27:44;;;;;;;;;;;17.50;99.90;;;;;;5074075;28;19991;-79
2022/05/03 13:30:11;;;;;;;;;;;17.50;99.90;;;;;;5074093;28;19954;-80
2022/05/03 13:32:38;;;;;;;;;;;17.50;99.90;;;;;;5074048;28;19915;-79
2022/05/03 13:35:05;;;;;;;;;;;17.50;99.90;;;;;;5074019;28;19959;-81
2022/05/03 13:40:28;;;;;;;;;;;17.50;99.90;;;;;;5073925;28;20012;-81
2022/05/03 13:42:56;;;;;;;;;;;17.40;99.90;;;;;;5073869;28;19909;-79
2022/05/03 13:45:23;;;;;;;;;;;17.40;99.90;;;;;;5073874;28;19909;-81
2022/05/03 13:47:49;;;;;;;;;;;17.40;99.90;;;;;;5073697;28;19908;-80
2022/05/03 13:50:16;;;;;;;;;;;17.30;99.90;;;;;;5073558;28;19931;-79
2022/05/03 13:52:43;;;;;;;;;;;17.30;99.90;;;;;;5073695;28;20244;-80
2022/05/03 13:55:10;;;;;;;;;;;17.30;99.90;;;;;;5073577;28;20026;-79
2022/05/03 13:57:36;;;;;;;;;;;17.30;99.90;;;;;;5073477;28;20363;-80
2022/05/03 14:00:04;;;;;;;;;;;17.30;99.90;;;;;;5073674;28;19912;-82
2022/05/03 14:02:31;;;;;;;;;;;17.30;99.90;;;;;;5073842;28;19908;-79
2022/05/03 14:04:58;;;;;;;;;;;17.20;99.90;;;;;;5073641;28;19909;-81
2022/05/03 14:07:24;;;;;;;;;;;17.20;99.90;;;;;;5073632;28;19916;-79
2022/05/03 14:09:51;;;;;;;;;;;17.20;99.90;;;;;;5073254;28;20274;-78
2022/05/03 14:12:17;;;;;;;;;;;17.20;99.90;;;;;;5073627;28;19908;-76
2022/05/03 14:14:44;;;;;;;;;;;17.20;99.90;;;;;;5073488;28;19924;-78
2022/05/03 14:17:11;;;;;;;;;;;17.20;99.90;;;;;;5073469;28;20267;-78
2022/05/03 14:19:39;;;;;;;;;;;17.10;99.90;;;;;;5073273;28;20440;-77
2022/05/03 14:22:06;;;;;;;;;;;17.10;99.90;;;;;;5073444;28;19912;-78
2022/05/03 14:24:32;;;;;;;;;;;17.10;99.90;;;;;;5073298;28;19909;-79
2022/05/03 14:26:59;;;;;;;;;;;17.00;99.90;;;;;;5073395;28;19908;-78
2022/05/03 14:29:25;;;;;;;;;;;17.00;99.90;;;;;;5073369;28;20382;-79
2022/05/03 14:31:52;;;;;;;;;;;16.90;99.90;;;;;;5073140;28;19909;-78
2022/05/03 14:34:20;;;;;;;;;;;16.90;99.90;;;;;;5073179;28;19916;-77
2022/05/03 14:36:46;;;;;;;;;;;16.90;99.90;;;;;;5073130;28;20309;-77
2022/05/03 14:39:14;;;;;;;;;;;16.90;99.90;;;;;;5073191;28;20398;-77
2022/05/03 14:41:42;;;;;;;;;;;16.80;99.90;;;;;;5072983;28;19908;-78
2022/05/03 14:44:08;;;;;;;;;;;16.80;99.90;;;;;;5073257;28;20287;-78
2022/05/03 14:46:35;;;;;;;;;;;16.80;99.90;;;;;;5073237;28;19952;-82
2022/05/03 14:49:02;;;;;;;;;;;16.80;99.90;;;;;;5073020;28;19909;-79
2022/05/03 14:51:28;;;;;;;;;;;16.70;99.90;;;;;;5073100;28;19912;-79
2022/05/03 14:53:55;;;;;;;;;;;16.70;99.90;;;;;;5074784;28;19916;-79
2022/05/03 15:04:36;;;;;;;;;;;16.70;99.90;;;;;;5077037;28;19919;-81
2022/05/03 15:07:03;;;;;;;;;;;16.80;99.90;;;;;;5076857;28;20004;-81
2022/05/03 15:09:29;;;;;;;;;;;16.80;99.90;;;;;;5076772;28;19999;-82